Terminal Aerodrome Forecast
Issued by NWS

Current Version | Previous Version | Text Only | Print | Product List | Glossary On
Versions: 1 2 3 4 5 6 7 8 9 10 11 12 13 14 15 16 17
000
FTUS42 KGSP 301700
TAFGMU
TAF
KGMU 301720Z 3018/0118 19003KT P6SM FEW040
     FM010900 VRB03KT P6SM FEW045
     FM011300 23003KT P6SM FEW045=

USA.gov is the U.S. government's official web portal to all federal, state and local government web resources and services.